createdAt,value
2023-03-03T00:02:27.454Z,35.38
2023-03-03T00:04:59.514Z,30.08
2023-03-03T00:07:31.571Z,35.92
2023-03-03T00:10:04.883Z,35.65
2023-03-03T00:12:49.028Z,38.45
2023-03-03T00:15:25.412Z,36.28
2023-03-03T00:17:58.768Z,37.97
2023-03-03T00:20:40.568Z,34.78
2023-03-03T00:23:35.764Z,32.60
2023-03-03T00:26:45.418Z,33.10
2023-03-03T00:29:36.498Z,32.97
2023-03-03T00:32:43.759Z,35.20
2023-03-03T00:35:30.295Z,36.22
2023-03-03T00:38:18.551Z,32.35
2023-03-03T00:40:51.020Z,37.30
2023-03-03T00:43:34.432Z,36.08
2023-03-03T00:46:10.112Z,39.50
2023-03-03T00:48:49.592Z,40.97
2023-03-03T00:51:37.196Z,37.90
2023-03-03T00:54:09.344Z,40.05
2023-03-03T00:56:41.335Z,37.03
2023-03-03T00:59:13.412Z,39.40
2023-03-03T01:01:45.389Z,38.67
2023-03-03T01:04:17.412Z,36.05
2023-03-03T01:06:49.809Z,40.90
2023-03-03T01:09:22.092Z,40.13
2023-03-03T01:11:55.491Z,40.53
2023-03-03T01:14:27.767Z,40.05
2023-03-03T01:16:59.911Z,38.90
2023-03-03T01:19:32.834Z,37.03
2023-03-03T01:22:04.758Z,40.33
2023-03-03T01:24:36.908Z,39.90
2023-03-03T01:27:09.096Z,39.72
2023-03-03T01:29:41.084Z,40.17
2023-03-03T01:32:13.082Z,38.85
2023-03-03T01:34:45.239Z,36.30
2023-03-03T01:37:17.388Z,37.45
2023-03-03T01:39:51.376Z,40.10
2023-03-03T01:42:29.099Z,39.80
2023-03-03T01:45:24.226Z,36.00
2023-03-03T01:48:07.614Z,40.80
2023-03-03T01:51:07.852Z,38.75
2023-03-03T01:54:02.626Z,32.65
2023-03-03T01:56:38.845Z,42.85
2023-03-03T01:59:17.537Z,43.60
2023-03-03T02:01:53.958Z,42.58
2023-03-03T02:04:26.949Z,41.35
2023-03-03T02:07:07.502Z,36.20
2023-03-03T02:10:07.576Z,42.13
2023-03-03T02:12:57.085Z,36.65
2023-03-03T02:15:32.916Z,36.47
2023-03-03T02:18:13.106Z,35.35
2023-03-03T02:20:57.586Z,36.58
2023-03-03T02:23:47.365Z,33.20
2023-03-03T02:26:34.260Z,36.83
2023-03-03T02:29:10.021Z,36.75
2023-03-03T02:31:43.193Z,36.90
2023-03-03T02:34:15.304Z,38.50
2023-03-03T02:36:47.580Z,41.85
2023-03-03T02:39:22.550Z,38.90
2023-03-03T02:42:02.524Z,37.30
2023-03-03T02:44:40.487Z,36.58
2023-03-03T02:47:12.819Z,32.65
2023-03-03T02:49:45.316Z,40.75
2023-03-03T02:52:19.035Z,39.03
2023-03-03T02:54:50.974Z,39.42
2023-03-03T02:57:23.044Z,36.90
2023-03-03T02:59:55.182Z,37.00
2023-03-03T03:02:27.487Z,44.15
2023-03-03T03:04:59.441Z,43.40
2023-03-03T03:07:31.445Z,43.63
2023-03-03T03:10:03.775Z,42.50
2023-03-03T03:12:36.558Z,41.70
2023-03-03T03:15:10.047Z,39.00
2023-03-03T03:17:42.261Z,41.90
2023-03-03T03:20:15.034Z,47.13
2023-03-03T03:22:47.102Z,43.53
2023-03-03T03:25:19.141Z,41.63
2023-03-03T03:27:51.180Z,43.88
2023-03-03T03:30:23.212Z,43.38
2023-03-03T03:32:55.387Z,45.92
2023-03-03T03:35:27.396Z,45.70
2023-03-03T03:37:59.620Z,48.20
2023-03-03T03:40:31.711Z,45.72
2023-03-03T03:43:03.818Z,48.97
2023-03-03T03:45:35.955Z,39.25
2023-03-03T03:48:07.968Z,46.45
2023-03-03T03:50:40.155Z,43.83
2023-03-03T03:53:12.225Z,46.25
2023-03-03T03:55:46.047Z,44.75
2023-03-03T03:58:19.170Z,40.95
2023-03-03T04:00:51.308Z,47.95
2023-03-03T04:03:23.528Z,40.33
2023-03-03T04:05:55.692Z,48.38
2023-03-03T04:08:27.724Z,43.00
2023-03-03T04:11:01.888Z,43.17
2023-03-03T04:13:35.230Z,40.22
2023-03-03T04:16:07.537Z,42.95
2023-03-03T04:18:39.616Z,44.83
2023-03-03T04:21:14.708Z,44.15
2023-03-03T04:23:46.960Z,44.97
2023-03-03T04:26:19.241Z,49.95
2023-03-03T04:28:51.308Z,46.95
2023-03-03T04:31:23.637Z,50.42
2023-03-03T04:33:59.606Z,50.13
2023-03-03T04:36:31.588Z,43.33
2023-03-03T04:39:03.747Z,47.63
2023-03-03T04:41:35.955Z,50.78
2023-03-03T04:44:07.920Z,47.00
2023-03-03T04:46:39.988Z,46.15
2023-03-03T04:49:12.680Z,46.60
2023-03-03T04:51:44.815Z,46.47
2023-03-03T04:54:16.958Z,43.72
2023-03-03T04:57:12.951Z,54.63
2023-03-03T04:59:45.111Z,44.90
2023-03-03T05:02:17.563Z,54.75
2023-03-03T05:04:50.046Z,45.25
2023-03-03T05:07:22.110Z,49.42
2023-03-03T05:09:55.335Z,51.25
2023-03-03T05:12:27.330Z,49.15
2023-03-03T05:14:59.429Z,57.75
2023-03-03T05:17:32.202Z,48.50
2023-03-03T05:20:08.496Z,45.80
2023-03-03T05:22:42.836Z,41.70
2023-03-03T05:25:14.995Z,46.53
2023-03-03T05:27:47.485Z,52.78
2023-03-03T05:30:19.639Z,45.72
2023-03-03T05:32:51.791Z,47.75
2023-03-03T05:35:23.849Z,45.03
2023-03-03T05:37:58.145Z,47.40
2023-03-03T05:40:30.504Z,47.50
2023-03-03T05:43:02.705Z,46.20
2023-03-03T05:45:35.580Z,42.95
2023-03-03T05:48:07.913Z,49.72
2023-03-03T05:50:41.123Z,47.42
2023-03-03T05:53:13.228Z,42.60
2023-03-03T05:55:45.201Z,49.13
2023-03-03T05:58:17.227Z,41.85
2023-03-03T06:00:49.181Z,46.42
2023-03-03T06:03:21.364Z,45.35
2023-03-03T06:05:53.562Z,43.65
2023-03-03T06:08:25.755Z,43.42
2023-03-03T06:10:58.243Z,40.70
2023-03-03T06:13:30.400Z,46.83
2023-03-03T06:16:02.696Z,41.67
2023-03-03T06:18:34.997Z,44.65
2023-03-03T06:21:07.266Z,47.80
2023-03-03T06:23:39.299Z,39.80
2023-03-03T06:26:11.717Z,45.65
2023-03-03T06:28:43.696Z,44.55
2023-03-03T06:31:15.996Z,43.65
2023-03-03T06:33:47.984Z,38.38
2023-03-03T06:36:20.788Z,39.42
2023-03-03T06:38:52.835Z,36.40
2023-03-03T06:41:24.966Z,45.88
2023-03-03T06:43:58.346Z,37.28
2023-03-03T06:46:31.102Z,39.38
2023-03-03T06:49:03.306Z,37.58
2023-03-03T06:51:39.767Z,42.85
2023-03-03T06:54:17.711Z,41.60
2023-03-03T06:57:00.679Z,42.35
2023-03-03T06:59:44.902Z,43.40
2023-03-03T07:02:21.098Z,40.05
2023-03-03T07:04:55.978Z,42.67
2023-03-03T07:07:28.079Z,38.53
2023-03-03T07:10:00.701Z,32.47
2023-03-03T07:12:38.550Z,38.42
2023-03-03T07:15:20.534Z,38.30
2023-03-03T07:17:59.576Z,33.97
2023-03-03T07:20:36.753Z,35.40
2023-03-03T07:23:24.244Z,30.92
2023-03-03T07:26:11.701Z,32.05
2023-03-03T07:28:58.463Z,33.55
2023-03-03T07:31:40.897Z,32.88
2023-03-03T07:34:21.964Z,32.40
2023-03-03T07:37:35.707Z,37.35
2023-03-03T07:40:51.436Z,34.65
2023-03-03T07:43:45.572Z,34.97
2023-03-03T07:46:23.579Z,31.80
2023-03-03T07:49:36.046Z,31.50
2023-03-03T07:52:29.868Z,29.73
2023-03-03T07:55:42.011Z,30.75
2023-03-03T07:58:17.260Z,32.88
2023-03-03T08:01:19.601Z,31.40
2023-03-03T08:04:42.666Z,31.52
2023-03-03T08:07:34.380Z,27.75
2023-03-03T08:10:35.058Z,29.75
2023-03-03T08:13:22.799Z,30.35
2023-03-03T08:16:04.790Z,30.48
2023-03-03T08:19:02.154Z,26.65
2023-03-03T08:21:36.651Z,29.45
2023-03-03T08:24:08.837Z,27.92
2023-03-03T08:26:41.006Z,26.27
2023-03-03T08:29:13.614Z,30.67
2023-03-03T08:31:46.233Z,26.73
2023-03-03T08:34:19.463Z,28.45
2023-03-03T08:36:52.185Z,26.42
2023-03-03T08:39:25.123Z,24.75
2023-03-03T08:41:57.944Z,22.30
2023-03-03T08:44:30.354Z,23.33
2023-03-03T08:47:02.657Z,25.55
2023-03-03T08:49:35.122Z,23.50
2023-03-03T08:52:07.373Z,22.40
2023-03-03T08:54:39.643Z,26.15
2023-03-03T08:57:12.523Z,24.33
2023-03-03T08:59:45.514Z,25.38
2023-03-03T09:02:18.973Z,23.45
2023-03-03T09:04:51.783Z,23.05
2023-03-03T09:07:24.644Z,23.23
2023-03-03T09:09:57.066Z,27.45
2023-03-03T09:12:35.835Z,20.73
2023-03-03T09:15:28.783Z,24.77
2023-03-03T09:18:25.081Z,21.90
2023-03-03T09:21:29.904Z,22.13
2023-03-03T09:24:05.867Z,23.83
2023-03-03T09:26:55.819Z,25.75
2023-03-03T09:29:37.643Z,30.20
2023-03-03T09:32:34.420Z,22.52
2023-03-03T09:35:38.492Z,25.15
2023-03-03T09:38:19.615Z,23.25
2023-03-03T09:41:36.441Z,26.75
2023-03-03T09:45:01.280Z,30.80
2023-03-03T09:48:24.754Z,24.75
2023-03-03T09:51:41.899Z,25.77
2023-03-03T09:54:47.524Z,24.88
2023-03-03T09:58:10.904Z,30.27
2023-03-03T10:01:41.564Z,26.17
2023-03-03T10:04:42.624Z,24.48
2023-03-03T10:08:10.698Z,29.75
2023-03-03T10:11:44.363Z,26.55
2023-03-03T10:14:57.927Z,30.33
2023-03-03T10:18:14.946Z,29.65
2023-03-03T10:21:12.028Z,35.15
2023-03-03T10:24:21.043Z,25.88
2023-03-03T10:27:28.200Z,31.35
2023-03-03T10:30:48.563Z,27.70
2023-03-03T10:34:06.005Z,31.88
2023-03-03T10:37:06.940Z,28.92
2023-03-03T10:40:21.669Z,30.35
2023-03-03T10:43:32.027Z,28.02
2023-03-03T10:46:31.435Z,28.80
2023-03-03T10:49:32.608Z,31.23
2023-03-03T10:52:49.327Z,27.38
2023-03-03T10:56:15.978Z,32.25
2023-03-03T10:59:36.876Z,29.65
2023-03-03T11:03:14.364Z,27.58
2023-03-03T11:06:22.205Z,27.20
2023-03-03T11:09:49.244Z,29.25
2023-03-03T11:12:50.308Z,27.65
2023-03-03T11:15:50.068Z,27.63
2023-03-03T11:18:36.445Z,27.15
2023-03-03T11:21:51.037Z,23.88
2023-03-03T11:24:38.220Z,29.90
2023-03-03T11:27:53.066Z,26.75
2023-03-03T11:30:59.949Z,27.98
2023-03-03T11:34:06.675Z,23.63
2023-03-03T11:37:16.794Z,24.48
2023-03-03T11:40:22.228Z,24.25
2023-03-03T11:43:11.827Z,28.60
2023-03-03T11:46:13.088Z,21.08
2023-03-03T11:49:19.946Z,22.63
2023-03-03T11:52:22.507Z,23.45
2023-03-03T11:55:39.445Z,24.25
2023-03-03T11:58:43.894Z,28.10
2023-03-03T12:02:18.485Z,24.90
2023-03-03T12:05:15.614Z,22.48
2023-03-03T12:08:19.393Z,21.08
2023-03-03T12:11:28.604Z,22.40
2023-03-03T12:14:46.624Z,23.02
2023-03-03T12:17:56.915Z,24.67
2023-03-03T12:20:59.392Z,22.63
2023-03-03T12:24:16.608Z,22.15
2023-03-03T12:27:30.036Z,23.48
2023-03-03T12:30:34.835Z,25.52
2023-03-03T12:33:44.416Z,24.80
2023-03-03T12:37:06.532Z,28.40
2023-03-03T12:40:10.503Z,24.40
2023-03-03T12:43:43.109Z,25.98
2023-03-03T12:46:57.993Z,25.70
2023-03-03T12:50:06.528Z,24.92
2023-03-03T12:53:18.424Z,24.02
2023-03-03T12:56:14.155Z,32.97
2023-03-03T12:59:18.254Z,25.60
2023-03-03T13:02:18.834Z,26.40
2023-03-03T13:05:13.872Z,24.30
2023-03-03T13:08:48.353Z,27.17
2023-03-03T13:11:51.582Z,25.77
2023-03-03T13:14:45.293Z,25.50
2023-03-03T13:17:37.532Z,25.15
2023-03-03T13:20:36.140Z,23.55
2023-03-03T13:23:32.401Z,24.17
2023-03-03T13:27:17.117Z,24.50
2023-03-03T13:30:01.764Z,26.08
2023-03-03T13:32:52.544Z,25.42
2023-03-03T13:35:46.167Z,24.60
2023-03-03T13:38:44.071Z,22.27
2023-03-03T13:41:32.281Z,22.73
2023-03-03T13:44:32.552Z,25.65
2023-03-03T13:47:28.620Z,24.48
2023-03-03T13:50:25.657Z,24.08
2023-03-03T13:53:32.775Z,26.92
2023-03-03T13:56:49.032Z,23.92
2023-03-03T14:00:05.925Z,25.65
2023-03-03T14:02:57.955Z,24.90
2023-03-03T14:05:53.296Z,25.15
2023-03-03T14:09:32.929Z,25.90
2023-03-03T14:12:34.777Z,25.10
2023-03-03T14:15:52.741Z,25.63
2023-03-03T14:18:42.029Z,27.48
2023-03-03T14:21:48.054Z,26.05
2023-03-03T14:25:05.570Z,27.60
2023-03-03T14:27:47.942Z,31.45
2023-03-03T14:30:38.767Z,26.27
2023-03-03T14:33:14.127Z,26.98
2023-03-03T14:35:56.571Z,24.73
2023-03-03T14:38:34.770Z,30.77
2023-03-03T14:41:10.291Z,24.85
2023-03-03T14:44:00.741Z,27.20
2023-03-03T14:47:23.873Z,23.95
2023-03-03T14:50:03.685Z,27.08
2023-03-03T14:53:24.222Z,26.55
2023-03-03T14:56:29.319Z,28.60
2023-03-03T14:59:27.097Z,26.60
2023-03-03T15:02:23.179Z,29.95
2023-03-03T15:05:24.051Z,25.85
2023-03-03T15:08:11.280Z,28.23
2023-03-03T15:10:46.318Z,27.13
2023-03-03T15:13:21.934Z,27.02
2023-03-03T15:16:11.338Z,24.60
2023-03-03T15:19:07.241Z,27.45
2023-03-03T15:22:07.721Z,28.08
2023-03-03T15:25:09.256Z,27.83
2023-03-03T15:28:29.210Z,26.88
2023-03-03T15:32:04.409Z,25.23
2023-03-03T15:35:00.377Z,27.05
2023-03-03T15:38:37.692Z,28.05
2023-03-03T15:41:35.327Z,25.85
2023-03-03T15:44:52.685Z,32.13
2023-03-03T15:48:07.036Z,30.30
2023-03-03T15:51:20.550Z,35.53
2023-03-03T15:54:31.454Z,27.85
2023-03-03T15:57:41.528Z,24.75
2023-03-03T16:01:01.164Z,26.73
2023-03-03T16:04:01.122Z,28.67
2023-03-03T16:07:06.029Z,27.50
2023-03-03T16:10:01.037Z,28.15
2023-03-03T16:13:17.917Z,26.38
2023-03-03T16:16:21.462Z,27.15
2023-03-03T16:19:32.300Z,32.42
2023-03-03T16:22:36.054Z,29.05
2023-03-03T16:25:40.489Z,26.42
2023-03-03T16:28:51.697Z,25.15
2023-03-03T16:31:50.034Z,26.88
2023-03-03T16:34:56.697Z,32.00
2023-03-03T16:38:02.922Z,26.92
2023-03-03T16:40:55.285Z,33.63
2023-03-03T16:43:53.752Z,34.05
2023-03-03T16:46:49.512Z,27.85
2023-03-03T16:49:39.400Z,30.90
2023-03-03T16:52:45.011Z,31.70
2023-03-03T16:56:23.699Z,30.08
2023-03-03T16:59:04.687Z,27.98
2023-03-03T17:02:27.207Z,25.60
2023-03-03T17:05:44.587Z,31.80
2023-03-03T17:08:44.003Z,25.98
2023-03-03T17:12:00.608Z,26.67
2023-03-03T17:14:56.845Z,29.02
2023-03-03T17:18:05.193Z,28.42
2023-03-03T17:21:00.940Z,28.48
2023-03-03T17:24:06.363Z,26.27
2023-03-03T17:27:08.362Z,30.08
2023-03-03T17:29:57.079Z,29.58
2023-03-03T17:32:52.676Z,31.95
2023-03-03T17:36:22.910Z,27.65
2023-03-03T17:39:50.390Z,28.23
2023-03-03T17:43:02.478Z,31.30
2023-03-03T17:45:47.818Z,28.92
2023-03-03T17:48:39.464Z,31.52
2023-03-03T17:51:58.393Z,28.27
2023-03-03T17:54:59.494Z,28.75
2023-03-03T17:58:26.236Z,31.20
2023-03-03T18:01:33.265Z,27.48
2023-03-03T18:04:47.894Z,30.38
2023-03-03T18:07:52.064Z,27.40
2023-03-03T18:11:06.077Z,28.42
2023-03-03T18:14:07.471Z,26.27
2023-03-03T18:17:24.135Z,32.38
2023-03-03T18:20:30.297Z,31.77
2023-03-03T18:23:32.083Z,29.95
2023-03-03T18:26:44.008Z,32.95
2023-03-03T18:29:24.404Z,33.58
2023-03-03T18:32:00.312Z,33.72
2023-03-03T18:34:39.050Z,32.95
2023-03-03T18:37:37.332Z,30.50
2023-03-03T18:40:18.016Z,32.45
2023-03-03T18:43:00.329Z,36.13
2023-03-03T18:45:53.741Z,31.70
2023-03-03T18:49:13.137Z,32.35
2023-03-03T18:51:50.384Z,32.88
2023-03-03T18:54:43.456Z,37.47
2023-03-03T18:57:39.510Z,37.08
2023-03-03T19:00:32.084Z,32.00
2023-03-03T19:03:32.738Z,28.23
2023-03-03T19:06:37.573Z,39.33
2023-03-03T19:09:51.764Z,37.78
2023-03-03T19:12:52.823Z,34.53
2023-03-03T19:15:30.592Z,32.10
2023-03-03T19:18:25.807Z,36.45
2023-03-03T19:21:05.330Z,34.63
2023-03-03T19:24:06.566Z,33.95
2023-03-03T19:27:14.253Z,31.58
2023-03-03T19:30:23.423Z,36.08
2023-03-03T19:33:40.943Z,41.10
2023-03-03T19:36:42.453Z,39.05
2023-03-03T19:40:21.453Z,35.85
2023-03-03T19:43:37.718Z,36.08
2023-03-03T19:46:58.176Z,36.40
2023-03-03T19:49:50.132Z,36.67
2023-03-03T19:52:47.720Z,35.40
2023-03-03T19:55:55.537Z,33.42
2023-03-03T19:59:00.048Z,36.42
2023-03-03T20:02:39.897Z,36.17
2023-03-03T20:06:05.037Z,38.45
2023-03-03T20:08:54.633Z,37.92
2023-03-03T20:12:02.200Z,53.47
2023-03-03T20:15:23.601Z,60.53
2023-03-03T20:18:45.314Z,47.72
2023-03-03T20:21:58.916Z,40.65
2023-03-03T20:25:04.314Z,38.50
2023-03-03T20:28:03.363Z,33.65
2023-03-03T20:31:23.995Z,35.25
2023-03-03T20:34:16.880Z,35.05
2023-03-03T20:37:15.663Z,34.95
2023-03-03T20:40:31.639Z,32.97
2023-03-03T20:43:57.381Z,34.63
2023-03-03T20:47:12.378Z,32.65
2023-03-03T20:50:24.876Z,36.17
2023-03-03T20:53:38.852Z,36.22
2023-03-03T20:56:46.133Z,31.52
2023-03-03T20:59:45.529Z,34.95
2023-03-03T21:02:56.070Z,33.67
2023-03-03T21:06:19.664Z,29.10
2023-03-03T21:08:57.814Z,33.95
2023-03-03T21:11:31.003Z,32.65
2023-03-03T21:14:36.459Z,35.03
2023-03-03T21:17:28.143Z,28.80
2023-03-03T21:20:33.278Z,37.60
2023-03-03T21:23:06.823Z,31.88
2023-03-03T21:25:43.854Z,31.42
2023-03-03T21:28:30.774Z,30.65
2023-03-03T21:31:17.319Z,35.88
2023-03-03T21:33:54.566Z,40.35
2023-03-03T21:36:37.079Z,31.05
2023-03-03T21:39:31.924Z,33.00
2023-03-03T21:42:19.595Z,28.67
2023-03-03T21:45:13.928Z,30.02
2023-03-03T21:47:48.379Z,32.15
2023-03-03T21:50:21.585Z,32.67
2023-03-03T21:52:56.305Z,31.20
2023-03-03T21:55:28.507Z,30.50
2023-03-03T21:58:00.615Z,32.25
2023-03-03T22:00:33.050Z,32.80
2023-03-03T22:03:05.227Z,38.17
2023-03-03T22:05:38.042Z,32.67
2023-03-03T22:08:10.465Z,29.83
2023-03-03T22:10:42.804Z,28.25
2023-03-03T22:13:17.053Z,32.40
2023-03-03T22:15:51.753Z,31.70
2023-03-03T22:18:24.938Z,27.75
2023-03-03T22:20:57.385Z,31.10
2023-03-03T22:23:29.552Z,30.95
2023-03-03T22:26:02.334Z,31.17
2023-03-03T22:28:34.996Z,27.17
2023-03-03T22:31:07.951Z,30.90
2023-03-03T22:33:49.122Z,29.55
2023-03-03T22:36:23.149Z,30.38
2023-03-03T22:38:55.500Z,30.40
2023-03-03T22:41:27.717Z,29.38
2023-03-03T22:43:59.984Z,25.52
2023-03-03T22:46:32.228Z,27.65
2023-03-03T22:49:04.329Z,31.40
2023-03-03T22:51:36.372Z,30.25
2023-03-03T22:54:08.522Z,36.40
2023-03-03T22:56:40.740Z,33.17
2023-03-03T22:59:12.902Z,27.38
2023-03-03T23:01:44.896Z,33.92
2023-03-03T23:04:17.124Z,32.47
2023-03-03T23:06:50.128Z,33.13
2023-03-03T23:09:22.543Z,30.70
2023-03-03T23:11:54.763Z,33.78
2023-03-03T23:14:27.115Z,32.50
2023-03-03T23:16:59.265Z,37.60
2023-03-03T23:20:11.926Z,37.38
2023-03-03T23:22:48.826Z,32.92
2023-03-03T23:25:23.164Z,35.45
2023-03-03T23:27:56.850Z,31.17
2023-03-03T23:30:29.028Z,32.33
2023-03-03T23:33:01.077Z,32.63
2023-03-03T23:35:33.231Z,35.78
2023-03-03T23:38:05.490Z,35.88
2023-03-03T23:40:38.138Z,31.38
2023-03-03T23:43:10.966Z,31.85
2023-03-03T23:45:44.395Z,30.23
2023-03-03T23:48:17.057Z,29.23
2023-03-03T23:50:50.240Z,32.45
2023-03-03T23:53:24.934Z,32.22
2023-03-03T23:55:57.207Z,30.75
2023-03-03T23:58:30.120Z,35.42
